createdAt,value
2017-12-23T00:00:28.057Z,91.90
2017-12-23T00:01:30.583Z,91.80
2017-12-23T00:02:33.097Z,91.90
2017-12-23T00:03:35.670Z,91.80
2017-12-23T00:04:38.200Z,91.80
2017-12-23T00:05:41.481Z,91.80
2017-12-23T00:06:44.765Z,91.90
2017-12-23T00:07:48.057Z,91.90
2017-12-23T00:08:51.392Z,91.90
2017-12-23T00:09:53.916Z,91.90
2017-12-23T00:10:56.445Z,92.10
2017-12-23T00:11:58.980Z,92.00
2017-12-23T00:13:01.504Z,92.00
2017-12-23T00:14:04.837Z,92.10
2017-12-23T00:15:07.381Z,92.10
2017-12-23T00:16:09.897Z,92.00
2017-12-23T00:17:12.405Z,92.10
2017-12-23T00:18:14.924Z,92.10
2017-12-23T00:19:18.266Z,92.20
2017-12-23T00:20:20.789Z,92.20
2017-12-23T00:21:24.081Z,92.10
2017-12-23T00:22:26.606Z,92.00
2017-12-23T00:23:29.117Z,92.10
2017-12-23T00:24:31.684Z,92.00
2017-12-23T00:25:34.219Z,92.00
2017-12-23T00:26:37.519Z,92.50
2017-12-23T00:27:40.805Z,92.10
2017-12-23T00:28:44.097Z,92.10
2017-12-23T00:29:46.658Z,92.10
2017-12-23T00:30:49.957Z,92.00
2017-12-23T00:31:52.485Z,92.00
2017-12-23T00:32:55.011Z,92.10
2017-12-23T00:33:57.526Z,92.00
2017-12-23T00:35:00.846Z,92.10
2017-12-23T00:36:03.412Z,92.10
2017-12-23T00:37:05.986Z,92.00
2017-12-23T00:38:08.512Z,92.00
2017-12-23T00:39:11.815Z,92.10
2017-12-23T00:40:14.330Z,92.10
2017-12-23T00:41:16.861Z,92.00
2017-12-23T00:42:19.405Z,92.00
2017-12-23T00:43:22.692Z,92.00
2017-12-23T00:44:25.978Z,91.90
2017-12-23T00:45:29.261Z,92.00
2017-12-23T00:46:32.591Z,92.00
2017-12-23T00:47:35.206Z,92.00
2017-12-23T00:48:38.497Z,92.00
2017-12-23T00:49:41.785Z,92.10
2017-12-23T00:50:44.322Z,92.10
2017-12-23T00:51:46.850Z,92.00
2017-12-23T00:52:49.422Z,92.00
2017-12-23T00:53:51.941Z,92.00
2017-12-23T00:54:55.226Z,92.10
2017-12-23T00:55:58.514Z,92.10
2017-12-23T00:57:01.801Z,92.00
2017-12-23T00:58:05.132Z,91.90
2017-12-23T00:59:07.650Z,91.90
2017-12-23T01:00:10.968Z,92.00
2017-12-23T01:01:13.490Z,92.00
2017-12-23T01:02:16.784Z,92.00
2017-12-23T01:03:20.067Z,92.00
2017-12-23T01:04:23.390Z,91.90
2017-12-23T01:05:25.922Z,91.90
2017-12-23T01:06:29.211Z,91.80
2017-12-23T01:07:32.532Z,91.80
2017-12-23T01:08:35.058Z,91.80
2017-12-23T01:09:38.354Z,91.80
2017-12-23T01:10:40.904Z,91.80
2017-12-23T01:11:44.224Z,91.90
2017-12-23T01:12:46.740Z,91.90
2017-12-23T01:13:49.261Z,92.00
2017-12-23T01:14:51.783Z,92.00
2017-12-23T01:15:55.081Z,92.10
2017-12-23T01:16:58.405Z,92.10
2017-12-23T01:18:00.928Z,92.10
2017-12-23T01:19:04.227Z,92.10
2017-12-23T01:20:06.774Z,92.10
2017-12-23T01:21:10.072Z,92.20
2017-12-23T01:22:12.621Z,92.20
2017-12-23T01:23:15.910Z,92.30
2017-12-23T01:24:19.204Z,92.10
2017-12-23T01:25:21.722Z,92.10
2017-12-23T01:26:24.249Z,92.00
2017-12-23T01:27:26.819Z,92.10
2017-12-23T01:28:29.347Z,92.00
2017-12-23T01:29:31.872Z,92.00
2017-12-23T01:30:34.398Z,91.90
2017-12-23T01:31:37.689Z,92.00
2017-12-23T01:32:40.242Z,92.00
2017-12-23T01:33:43.530Z,92.10
2017-12-23T01:34:46.816Z,92.10
2017-12-23T01:35:50.104Z,92.10
2017-12-23T01:36:52.625Z,92.10
2017-12-23T01:37:55.192Z,92.10
2017-12-23T01:38:57.714Z,92.10
2017-12-23T01:40:01.081Z,92.10
2017-12-23T01:41:04.386Z,92.20
2017-12-23T01:42:06.902Z,92.20
2017-12-23T01:43:09.453Z,92.20
2017-12-23T01:44:11.976Z,92.10
2017-12-23T01:45:14.493Z,92.20
2017-12-23T01:46:17.017Z,92.20
2017-12-23T01:47:19.555Z,92.20
2017-12-23T01:48:33.842Z,92.30
2017-12-23T01:49:36.408Z,92.30
2017-12-23T01:50:38.931Z,92.30
2017-12-23T01:51:42.222Z,92.40
2017-12-23T01:52:45.510Z,92.30
2017-12-23T01:53:48.840Z,92.30
2017-12-23T01:54:51.369Z,92.40
2017-12-23T01:55:53.896Z,92.50
2017-12-23T01:56:56.419Z,92.50
2017-12-23T01:57:58.950Z,92.50
2017-12-23T01:59:02.282Z,92.40
2017-12-23T02:00:04.801Z,92.40
2017-12-23T02:01:08.133Z,92.50
2017-12-23T02:02:10.651Z,92.50
2017-12-23T02:03:14.034Z,92.50
2017-12-23T02:04:17.322Z,92.50
2017-12-23T02:05:20.621Z,92.60
2017-12-23T02:06:23.174Z,92.60
2017-12-23T02:07:26.485Z,92.70
2017-12-23T02:08:29.004Z,92.70
2017-12-23T02:09:31.526Z,92.70
2017-12-23T02:10:34.058Z,92.90
2017-12-23T02:11:37.406Z,92.70
2017-12-23T02:12:40.700Z,92.70
2017-12-23T02:13:43.221Z,92.70
2017-12-23T02:14:45.884Z,92.70
2017-12-23T02:15:48.408Z,92.80
2017-12-23T02:16:50.916Z,92.80
2017-12-23T02:17:53.440Z,92.80
2017-12-23T02:18:56.008Z,92.80
2017-12-23T02:19:58.551Z,92.80
2017-12-23T02:21:01.074Z,92.80
2017-12-23T02:22:03.598Z,92.90
2017-12-23T02:23:06.126Z,92.80
2017-12-23T02:24:08.676Z,92.90
2017-12-23T02:25:11.196Z,92.90
2017-12-23T02:26:13.724Z,92.90
2017-12-23T02:27:16.248Z,92.90
2017-12-23T02:28:19.528Z,92.80
2017-12-23T02:29:22.849Z,92.80
2017-12-23T02:30:25.370Z,92.80
2017-12-23T02:31:27.895Z,92.80
2017-12-23T02:32:30.413Z,92.70
2017-12-23T02:33:33.786Z,92.70
2017-12-23T02:34:36.321Z,92.70
2017-12-23T02:35:38.998Z,92.70
2017-12-23T02:36:41.536Z,92.70
2017-12-23T02:37:44.833Z,92.70
2017-12-23T02:38:47.450Z,92.70
2017-12-23T02:39:50.727Z,92.70
2017-12-23T02:40:53.241Z,92.70
2017-12-23T02:41:55.763Z,92.70
2017-12-23T02:42:58.286Z,92.80
2017-12-23T02:44:00.849Z,92.70
2017-12-23T02:45:03.369Z,92.80
2017-12-23T02:46:06.657Z,93.00
2017-12-23T02:47:09.954Z,93.00
2017-12-23T02:48:12.478Z,93.00
2017-12-23T02:49:15.034Z,93.00
2017-12-23T02:50:17.559Z,93.00
2017-12-23T02:51:20.090Z,93.10
2017-12-23T02:52:23.380Z,93.20
2017-12-23T02:53:26.695Z,93.20
2017-12-23T02:54:29.262Z,93.20
2017-12-23T02:55:31.794Z,93.20
2017-12-23T02:56:35.082Z,93.40
2017-12-23T02:57:38.381Z,93.40
2017-12-23T02:58:40.905Z,93.40
2017-12-23T02:59:43.473Z,93.40
2017-12-23T03:00:46.018Z,93.40
2017-12-23T03:01:48.536Z,93.40
2017-12-23T03:02:51.837Z,93.50
2017-12-23T03:03:54.362Z,93.50
2017-12-23T03:04:56.911Z,93.60
2017-12-23T03:05:59.445Z,93.60
2017-12-23T03:07:01.989Z,93.60
2017-12-23T03:08:05.269Z,93.60
2017-12-23T03:09:07.789Z,93.60
2017-12-23T03:10:10.354Z,93.60
2017-12-23T03:11:12.889Z,93.60
2017-12-23T03:12:15.402Z,93.60
2017-12-23T03:13:18.061Z,93.50
2017-12-23T03:14:20.573Z,93.60
2017-12-23T03:15:23.106Z,93.60
2017-12-23T03:16:25.619Z,93.60
2017-12-23T03:17:28.128Z,93.70
2017-12-23T03:18:30.681Z,93.70
2017-12-23T03:19:33.204Z,93.80
2017-12-23T03:20:35.733Z,93.90
2017-12-23T03:21:38.352Z,93.90
2017-12-23T03:22:40.912Z,93.90
2017-12-23T03:23:43.469Z,93.80
2017-12-23T03:24:45.993Z,93.80
2017-12-23T03:25:48.557Z,93.70
2017-12-23T03:26:51.079Z,93.70
2017-12-23T03:27:53.601Z,93.70
2017-12-23T03:28:56.127Z,93.80
2017-12-23T03:29:58.686Z,93.70
2017-12-23T03:31:01.202Z,93.50
2017-12-23T03:32:03.727Z,93.50
2017-12-23T03:33:06.275Z,93.40
2017-12-23T03:34:08.803Z,93.50
2017-12-23T03:35:12.142Z,93.40
2017-12-23T03:36:14.701Z,93.70
2017-12-23T03:37:17.411Z,93.40
2017-12-23T03:38:21.092Z,93.40
2017-12-23T03:39:23.614Z,93.50
2017-12-23T03:40:26.128Z,93.50
2017-12-23T03:41:28.692Z,93.50
2017-12-23T03:42:31.209Z,93.60
2017-12-23T03:43:33.737Z,93.70
2017-12-23T03:44:36.261Z,93.70
2017-12-23T03:45:38.780Z,93.70
2017-12-23T03:46:41.337Z,93.70
2017-12-23T03:47:43.857Z,93.90
2017-12-23T03:48:46.377Z,93.80
2017-12-23T03:49:48.938Z,93.80
2017-12-23T03:50:51.461Z,93.80
2017-12-23T03:51:53.983Z,93.80
2017-12-23T03:52:57.279Z,93.70
2017-12-23T03:54:00.572Z,93.70
2017-12-23T03:55:03.132Z,93.70
2017-12-23T03:56:05.657Z,93.60
2017-12-23T03:57:08.191Z,93.60
2017-12-23T03:58:10.714Z,93.60
2017-12-23T03:59:14.009Z,93.50
2017-12-23T04:00:17.326Z,93.50
2017-12-23T04:01:20.641Z,93.50
2017-12-23T04:02:23.164Z,93.50
2017-12-23T04:03:25.774Z,93.50
2017-12-23T04:04:28.306Z,93.50
2017-12-23T04:05:30.872Z,93.40
2017-12-23T04:06:33.397Z,93.20
2017-12-23T04:07:36.689Z,93.20
2017-12-23T04:08:40.002Z,93.10
2017-12-23T04:09:42.517Z,93.10
2017-12-23T04:10:45.806Z,93.00
2017-12-23T04:11:49.094Z,92.80
2017-12-23T04:12:52.422Z,92.80
2017-12-23T04:13:54.946Z,92.80
2017-12-23T04:14:58.237Z,92.70
2017-12-23T04:16:01.574Z,92.70
2017-12-23T04:17:04.100Z,92.70
2017-12-23T04:18:06.629Z,92.70
2017-12-23T04:19:09.177Z,92.70
2017-12-23T04:20:11.690Z,92.70
2017-12-23T04:21:14.270Z,92.70
2017-12-23T04:22:16.798Z,92.60
2017-12-23T04:23:19.317Z,92.50
2017-12-23T04:24:21.834Z,92.90
2017-12-23T04:25:25.127Z,92.50
2017-12-23T04:26:27.698Z,92.50
2017-12-23T04:27:30.988Z,92.50
2017-12-23T04:28:33.514Z,92.50
2017-12-23T04:29:36.040Z,92.40
2017-12-23T04:30:38.567Z,92.40
2017-12-23T04:31:41.884Z,92.40
2017-12-23T04:32:44.445Z,92.40
2017-12-23T04:33:46.968Z,92.50
2017-12-23T04:34:49.599Z,92.50
2017-12-23T04:35:52.094Z,92.40
2017-12-23T04:36:54.625Z,92.40
2017-12-23T04:37:57.148Z,92.30
2017-12-23T04:39:00.444Z,92.30
2017-12-23T04:40:03.761Z,92.30
2017-12-23T04:41:06.292Z,92.30
2017-12-23T04:42:09.577Z,92.20
2017-12-23T04:43:12.148Z,92.20
2017-12-23T04:44:14.675Z,92.30
2017-12-23T04:45:17.204Z,92.50
2017-12-23T04:46:19.717Z,92.40
2017-12-23T04:47:22.237Z,92.40
2017-12-23T04:48:24.806Z,92.30
2017-12-23T04:49:27.327Z,92.30
2017-12-23T04:50:30.609Z,92.30
2017-12-23T04:51:33.892Z,92.30
2017-12-23T04:52:37.185Z,92.40
2017-12-23T04:53:40.501Z,92.40
2017-12-23T04:54:43.051Z,92.40
2017-12-23T04:55:45.718Z,92.40
2017-12-23T04:56:48.248Z,92.40
2017-12-23T04:57:50.773Z,92.50
2017-12-23T04:58:53.338Z,92.40
2017-12-23T04:59:55.857Z,92.50
2017-12-23T05:00:59.281Z,92.40
2017-12-23T05:02:01.798Z,92.40
2017-12-23T05:03:04.323Z,92.30
2017-12-23T05:04:06.864Z,92.40
2017-12-23T05:05:09.381Z,92.40
2017-12-23T05:06:11.905Z,92.40
2017-12-23T05:07:14.425Z,92.50
2017-12-23T05:08:16.950Z,92.50
2017-12-23T05:09:19.496Z,92.80
2017-12-23T05:10:22.013Z,92.50
2017-12-23T05:11:24.541Z,92.50
2017-12-23T05:12:27.099Z,92.60
2017-12-23T05:13:29.616Z,92.60
2017-12-23T05:14:32.185Z,92.60
2017-12-23T05:15:34.710Z,92.60
2017-12-23T05:16:37.225Z,92.60
2017-12-23T05:17:39.741Z,92.50
2017-12-23T05:18:42.269Z,92.20
2017-12-23T05:19:45.600Z,92.40
2017-12-23T05:20:48.125Z,92.40
2017-12-23T05:21:51.414Z,92.50
2017-12-23T05:22:53.942Z,92.50
2017-12-23T05:23:56.464Z,92.40
2017-12-23T05:24:59.026Z,92.40
2017-12-23T05:26:01.544Z,92.50
2017-12-23T05:27:04.064Z,92.50
2017-12-23T05:28:06.590Z,92.50
2017-12-23T05:29:09.885Z,92.40
2017-12-23T05:30:13.199Z,92.40
2017-12-23T05:31:15.719Z,92.40
2017-12-23T05:32:18.316Z,92.30
2017-12-23T05:33:20.834Z,92.20
2017-12-23T05:34:23.346Z,92.20
2017-12-23T05:35:26.628Z,92.20
2017-12-23T05:36:29.155Z,92.20
2017-12-23T05:37:31.738Z,92.30
2017-12-23T05:38:35.064Z,92.30
2017-12-23T05:39:37.589Z,92.30
2017-12-23T05:40:40.885Z,92.30
2017-12-23T05:41:43.406Z,92.30
2017-12-23T05:42:45.926Z,92.30
2017-12-23T05:43:48.622Z,92.20
2017-12-23T05:44:51.174Z,92.60
2017-12-23T05:45:53.692Z,92.70
2017-12-23T05:46:56.205Z,92.60
2017-12-23T05:47:58.736Z,92.60
2017-12-23T05:49:02.013Z,92.50
2017-12-23T05:50:05.338Z,92.50
2017-12-23T05:51:07.852Z,92.60
2017-12-23T05:52:10.405Z,92.40
2017-12-23T05:53:12.927Z,92.30
2017-12-23T05:54:15.441Z,92.50
2017-12-23T05:55:17.997Z,92.40
2017-12-23T05:56:20.528Z,92.50
2017-12-23T05:57:23.058Z,92.70
2017-12-23T05:58:26.353Z,92.90
2017-12-23T05:59:29.662Z,92.70
2017-12-23T06:00:32.205Z,92.60
2017-12-23T06:01:35.497Z,92.70
2017-12-23T06:02:38.021Z,92.70
2017-12-23T06:03:40.593Z,92.70
2017-12-23T06:04:43.117Z,92.70
2017-12-23T06:05:45.633Z,92.70
2017-12-23T06:06:48.149Z,92.70
2017-12-23T06:07:50.666Z,93.00
2017-12-23T06:08:53.213Z,93.00
2017-12-23T06:09:55.729Z,92.80
2017-12-23T06:10:58.261Z,92.80
2017-12-23T06:12:00.809Z,92.90
2017-12-23T06:13:03.371Z,93.10
2017-12-23T06:14:06.692Z,92.80
2017-12-23T06:15:09.205Z,92.80
2017-12-23T06:16:11.733Z,92.80
2017-12-23T06:17:15.021Z,92.90
2017-12-23T06:18:17.608Z,92.90
2017-12-23T06:19:20.130Z,92.80
2017-12-23T06:20:22.656Z,92.70
2017-12-23T06:21:25.171Z,92.70
2017-12-23T06:22:28.473Z,92.80
2017-12-23T06:23:31.043Z,92.80
2017-12-23T06:24:33.565Z,92.70
2017-12-23T06:25:36.093Z,92.60
2017-12-23T06:26:38.607Z,92.60
2017-12-23T06:27:41.129Z,92.60
2017-12-23T06:28:43.689Z,92.60
2017-12-23T06:29:46.214Z,92.60
2017-12-23T06:30:48.741Z,92.60
2017-12-23T06:31:51.288Z,92.50
2017-12-23T06:32:53.806Z,92.60
2017-12-23T06:33:56.422Z,92.50
2017-12-23T06:34:58.941Z,92.40
2017-12-23T06:36:02.281Z,92.40
2017-12-23T06:37:04.806Z,92.40
2017-12-23T06:38:08.085Z,92.40
2017-12-23T06:39:11.374Z,92.40
2017-12-23T06:40:14.656Z,92.50
2017-12-23T06:41:17.972Z,92.40
2017-12-23T06:42:20.486Z,92.40
2017-12-23T06:43:23.013Z,92.30
2017-12-23T06:44:25.541Z,92.30
2017-12-23T06:45:28.865Z,92.30
2017-12-23T06:46:31.390Z,92.30
2017-12-23T06:47:33.959Z,92.20
2017-12-23T06:48:37.238Z,92.20
2017-12-23T06:49:40.522Z,92.20
2017-12-23T06:50:43.853Z,92.10
2017-12-23T06:51:46.418Z,92.10
2017-12-23T06:52:48.950Z,92.20
2017-12-23T06:53:51.492Z,92.20
2017-12-23T06:54:54.014Z,92.30
2017-12-23T06:55:56.530Z,92.30
2017-12-23T06:56:59.867Z,92.30
2017-12-23T06:58:02.388Z,92.30
2017-12-23T06:59:05.673Z,92.40
2017-12-23T07:00:08.957Z,92.20
2017-12-23T07:01:12.250Z,92.30
2017-12-23T07:02:14.812Z,92.30
2017-12-23T07:03:18.136Z,92.30
2017-12-23T07:04:20.676Z,92.30
2017-12-23T07:05:23.195Z,92.40
2017-12-23T07:06:25.721Z,92.40
2017-12-23T07:07:28.235Z,92.20
2017-12-23T07:08:30.812Z,92.10
2017-12-23T07:09:34.146Z,92.10
2017-12-23T07:10:36.651Z,92.10
2017-12-23T07:11:39.169Z,92.10
2017-12-23T07:12:41.689Z,92.20
2017-12-23T07:13:45.021Z,92.60
2017-12-23T07:14:47.581Z,92.40
2017-12-23T07:15:50.102Z,92.50
2017-12-23T07:16:53.393Z,92.60
2017-12-23T07:17:56.696Z,92.70
2017-12-23T07:18:59.256Z,92.70
2017-12-23T07:20:02.546Z,92.80
2017-12-23T07:21:05.078Z,92.80
2017-12-23T07:22:07.601Z,92.70
2017-12-23T07:23:10.157Z,92.70
2017-12-23T07:24:12.683Z,92.80
2017-12-23T07:25:15.209Z,92.70
2017-12-23T07:26:17.726Z,92.90
2017-12-23T07:27:21.058Z,92.60
2017-12-23T07:28:23.706Z,92.60
2017-12-23T07:29:26.223Z,92.60
2017-12-23T07:30:28.733Z,92.50
2017-12-23T07:31:31.306Z,92.50
2017-12-23T07:32:33.826Z,92.50
2017-12-23T07:33:36.643Z,92.60
2017-12-23T07:34:39.159Z,92.50
2017-12-23T07:35:41.681Z,92.60
2017-12-23T07:36:44.249Z,92.60
2017-12-23T07:37:46.778Z,92.70
2017-12-23T07:38:50.074Z,92.60
2017-12-23T07:39:53.414Z,92.60
2017-12-23T07:40:55.987Z,92.60
2017-12-23T07:41:58.514Z,92.50
2017-12-23T07:43:01.089Z,92.50
2017-12-23T07:44:03.625Z,92.50
2017-12-23T07:45:06.950Z,92.60
2017-12-23T07:46:09.472Z,92.70
2017-12-23T07:47:12.756Z,92.70
2017-12-23T07:48:16.066Z,93.00
2017-12-23T07:49:18.586Z,92.70
2017-12-23T07:50:21.104Z,92.70
2017-12-23T07:51:23.614Z,92.70
2017-12-23T07:52:26.132Z,92.70
2017-12-23T07:53:29.477Z,92.70
2017-12-23T07:54:32.765Z,92.90
2017-12-23T07:55:36.046Z,92.90
2017-12-23T07:56:39.335Z,92.80
2017-12-23T07:57:42.652Z,92.80
2017-12-23T07:58:45.177Z,92.80
2017-12-23T07:59:48.481Z,92.80
2017-12-23T08:00:51.010Z,92.80
2017-12-23T08:01:53.538Z,92.80
2017-12-23T08:02:56.103Z,92.90
2017-12-23T08:03:58.636Z,92.90
2017-12-23T08:05:01.942Z,92.90
2017-12-23T08:06:04.508Z,92.90
2017-12-23T08:07:07.039Z,93.00
2017-12-23T08:08:09.612Z,93.10
2017-12-23T08:09:12.959Z,93.10
2017-12-23T08:10:15.510Z,93.10
2017-12-23T08:11:18.039Z,93.10
2017-12-23T08:12:21.318Z,93.20
2017-12-23T08:13:24.597Z,93.30
2017-12-23T08:14:27.926Z,93.40
2017-12-23T08:15:30.478Z,93.30
2017-12-23T08:16:33.003Z,93.30
2017-12-23T08:17:35.522Z,93.30
2017-12-23T08:18:38.050Z,93.30
2017-12-23T08:19:41.337Z,93.40
2017-12-23T08:20:43.926Z,93.40
2017-12-23T08:21:46.471Z,93.40
2017-12-23T08:22:49.749Z,93.30
2017-12-23T08:23:53.139Z,93.30
2017-12-23T08:24:56.436Z,93.40
2017-12-23T08:25:58.954Z,93.40
2017-12-23T08:27:01.509Z,93.60
2017-12-23T08:28:04.038Z,93.30
2017-12-23T08:29:06.593Z,93.30
2017-12-23T08:30:09.874Z,93.40
2017-12-23T08:31:13.237Z,93.40
2017-12-23T08:32:15.802Z,93.40
2017-12-23T08:33:18.316Z,93.50
2017-12-23T08:34:20.882Z,93.40
2017-12-23T08:35:23.445Z,93.40
2017-12-23T08:36:25.964Z,93.40
2017-12-23T08:37:28.486Z,93.40
2017-12-23T08:38:31.058Z,93.40
2017-12-23T08:39:33.596Z,93.50
2017-12-23T08:40:36.130Z,93.60
2017-12-23T08:41:38.658Z,93.60
2017-12-23T08:42:41.184Z,93.60
2017-12-23T08:43:44.505Z,93.70
2017-12-23T08:44:47.045Z,93.70
2017-12-23T08:45:49.569Z,93.60
2017-12-23T08:46:52.110Z,93.60
2017-12-23T08:47:54.632Z,93.60
2017-12-23T08:48:57.950Z,93.70
2017-12-23T08:50:00.472Z,93.70
2017-12-23T08:51:03.029Z,93.70
2017-12-23T08:52:05.552Z,93.60
2017-12-23T08:53:08.068Z,93.60
2017-12-23T08:54:10.601Z,93.60
2017-12-23T08:55:13.114Z,93.60
2017-12-23T08:56:16.449Z,93.60
2017-12-23T08:57:18.974Z,93.60
2017-12-23T08:58:21.489Z,93.60
2017-12-23T08:59:24.009Z,93.70
2017-12-23T09:00:26.525Z,93.40
2017-12-23T09:01:29.074Z,93.40
2017-12-23T09:02:31.606Z,93.50
2017-12-23T09:03:34.182Z,93.70
2017-12-23T09:04:36.702Z,93.40
2017-12-23T09:05:40.011Z,93.20
2017-12-23T09:06:43.304Z,93.20
2017-12-23T09:08:55.594Z,93.20
2017-12-23T09:09:58.877Z,92.90
2017-12-23T09:11:02.182Z,92.90
2017-12-23T09:12:04.706Z,92.90
2017-12-23T09:13:07.239Z,92.80
2017-12-23T09:14:09.808Z,92.80
2017-12-23T09:15:12.367Z,92.80
2017-12-23T09:16:14.893Z,92.80
2017-12-23T09:17:18.177Z,92.80
2017-12-23T09:18:21.462Z,92.80
2017-12-23T09:19:24.745Z,92.80
2017-12-23T09:20:27.317Z,92.80
2017-12-23T09:21:30.604Z,92.60
2017-12-23T09:22:33.897Z,92.60
2017-12-23T09:23:36.541Z,92.60
2017-12-23T09:24:39.826Z,92.80
2017-12-23T09:25:43.241Z,92.80
2017-12-23T09:26:45.766Z,92.80
2017-12-23T09:27:48.297Z,92.70
2017-12-23T09:28:51.610Z,92.70
2017-12-23T09:29:54.146Z,92.60
2017-12-23T09:30:56.704Z,92.70
2017-12-23T09:31:59.230Z,92.70
2017-12-23T09:33:01.746Z,92.80
2017-12-23T09:34:04.288Z,92.80
2017-12-23T09:35:06.863Z,92.80
2017-12-23T09:36:09.394Z,92.80
2017-12-23T09:37:12.688Z,92.80
2017-12-23T09:38:15.222Z,92.80
2017-12-23T09:39:17.751Z,92.80
2017-12-23T09:40:20.310Z,92.80
2017-12-23T09:41:22.839Z,92.90
2017-12-23T09:42:26.136Z,92.90
2017-12-23T09:43:29.418Z,92.90
2017-12-23T09:44:31.947Z,92.90
2017-12-23T09:45:34.506Z,93.00
2017-12-23T09:46:37.031Z,93.10
2017-12-23T09:47:39.554Z,93.10
2017-12-23T09:48:42.073Z,93.10
2017-12-23T09:49:44.637Z,93.10
2017-12-23T09:50:47.210Z,93.10
2017-12-23T09:51:49.737Z,93.00
2017-12-23T09:52:53.014Z,92.90
2017-12-23T09:53:55.559Z,92.90
2017-12-23T09:54:58.081Z,93.10
2017-12-23T09:56:00.646Z,93.00
2017-12-23T09:57:03.165Z,93.10
2017-12-23T09:58:05.747Z,93.20
2017-12-23T09:59:09.033Z,93.30
2017-12-23T10:00:12.557Z,93.10
2017-12-23T10:01:15.399Z,93.10
2017-12-23T10:02:18.014Z,93.00
2017-12-23T10:03:20.731Z,93.00
2017-12-23T10:04:24.149Z,93.00
2017-12-23T10:05:27.546Z,93.00
2017-12-23T10:06:30.196Z,92.90
2017-12-23T10:07:32.809Z,93.00
2017-12-23T10:08:35.417Z,93.00
2017-12-23T10:09:38.136Z,93.00
2017-12-23T10:10:40.745Z,93.10
2017-12-23T10:11:44.233Z,93.00
2017-12-23T10:12:46.941Z,93.00
2017-12-23T10:13:49.753Z,93.10
2017-12-23T10:14:52.502Z,93.10
2017-12-23T10:15:55.159Z,93.00
2017-12-23T10:16:57.758Z,93.30
2017-12-23T10:18:00.371Z,93.10
2017-12-23T10:19:02.959Z,93.00
2017-12-23T10:20:05.629Z,93.20
2017-12-23T10:21:08.293Z,93.10
2017-12-23T10:22:10.977Z,93.10
2017-12-23T10:23:13.597Z,93.10
2017-12-23T10:24:16.983Z,93.10
2017-12-23T10:25:20.370Z,93.10
2017-12-23T10:26:23.750Z,93.10
2017-12-23T10:27:27.188Z,93.10
2017-12-23T10:28:29.818Z,93.10
2017-12-23T10:29:32.445Z,93.10
2017-12-23T10:30:34.990Z,93.10
2017-12-23T10:31:38.298Z,93.00
2017-12-23T10:32:40.854Z,93.10
2017-12-23T10:33:43.369Z,93.30
2017-12-23T10:34:46.662Z,93.00
2017-12-23T10:35:49.998Z,93.00
2017-12-23T10:36:52.509Z,93.00
2017-12-23T10:37:55.875Z,93.10
2017-12-23T10:38:58.398Z,93.10
2017-12-23T10:40:00.927Z,93.00
2017-12-23T10:41:04.216Z,93.00
2017-12-23T10:42:06.743Z,93.00
2017-12-23T10:43:09.306Z,93.00
2017-12-23T10:44:11.827Z,92.80
2017-12-23T10:45:14.358Z,92.90
2017-12-23T10:46:16.879Z,92.80
2017-12-23T10:47:19.425Z,93.10
2017-12-23T10:48:21.999Z,92.90
2017-12-23T10:49:24.535Z,92.90
2017-12-23T10:50:27.856Z,92.90
2017-12-23T10:51:30.380Z,92.90
2017-12-23T10:52:33.664Z,92.70
2017-12-23T10:53:36.221Z,92.70
2017-12-23T10:54:38.755Z,92.90
2017-12-23T10:55:41.276Z,92.50
2017-12-23T10:56:43.813Z,92.70
2017-12-23T10:57:46.489Z,92.50
2017-12-23T10:58:49.010Z,92.50
2017-12-23T10:59:51.541Z,92.30
2017-12-23T11:00:54.827Z,92.50
2017-12-23T11:01:57.352Z,92.50
2017-12-23T11:02:59.906Z,92.50
2017-12-23T11:04:02.462Z,92.50
2017-12-23T11:05:04.989Z,92.30
2017-12-23T11:06:08.275Z,92.30
2017-12-23T11:07:10.845Z,92.30
2017-12-23T11:08:13.367Z,92.20
2017-12-23T11:09:15.891Z,92.20
2017-12-23T11:10:18.408Z,92.30
2017-12-23T11:11:20.936Z,92.20
2017-12-23T11:12:23.497Z,92.20
2017-12-23T11:13:26.023Z,92.20
2017-12-23T11:14:29.315Z,92.20
2017-12-23T11:15:32.658Z,92.30
2017-12-23T11:16:35.153Z,92.30
2017-12-23T11:17:38.473Z,92.20
2017-12-23T11:18:41.006Z,92.20
2017-12-23T11:19:44.294Z,92.20
2017-12-23T11:20:47.581Z,92.30
2017-12-23T11:21:50.883Z,92.30
2017-12-23T11:22:53.450Z,92.30
2017-12-23T11:23:56.019Z,92.30
2017-12-23T11:24:58.536Z,92.40
2017-12-23T11:26:01.066Z,92.30
2017-12-23T11:27:03.597Z,92.30
2017-12-23T11:28:06.937Z,92.20
2017-12-23T11:29:09.505Z,92.20
2017-12-23T11:30:12.041Z,92.20
2017-12-23T11:31:14.560Z,92.30
2017-12-23T11:32:17.085Z,92.40
2017-12-23T11:33:19.625Z,92.40
2017-12-23T11:34:22.185Z,92.30
2017-12-23T11:35:24.708Z,92.40
2017-12-23T11:36:27.233Z,92.40
2017-12-23T11:37:29.761Z,92.30
2017-12-23T11:38:33.056Z,92.30
2017-12-23T11:39:36.369Z,92.40
2017-12-23T11:40:38.889Z,92.40
2017-12-23T11:41:41.419Z,92.40
2017-12-23T11:42:44.479Z,92.40
2017-12-23T11:43:47.038Z,92.40
2017-12-23T11:44:49.564Z,92.50
2017-12-23T11:45:52.084Z,92.20
2017-12-23T11:46:54.599Z,92.20
2017-12-23T11:47:57.118Z,92.20
2017-12-23T11:48:59.674Z,92.20
2017-12-23T11:50:02.203Z,92.10
2017-12-23T11:51:05.499Z,92.00
2017-12-23T11:52:08.049Z,92.00
2017-12-23T11:53:10.573Z,92.10
2017-12-23T11:54:13.151Z,91.80
2017-12-23T11:55:15.669Z,92.10
2017-12-23T11:56:18.969Z,92.10
2017-12-23T11:57:21.698Z,92.20
2017-12-23T11:58:25.015Z,92.30
2017-12-23T11:59:27.836Z,92.30
2017-12-23T12:00:30.398Z,92.30
2017-12-23T12:01:32.928Z,92.30
2017-12-23T12:02:35.558Z,92.30
2017-12-23T12:03:38.092Z,92.30
2017-12-23T12:04:40.649Z,92.20
2017-12-23T12:05:43.171Z,92.10
2017-12-23T12:06:46.510Z,92.10
2017-12-23T12:07:49.037Z,92.10
2017-12-23T12:08:51.562Z,92.20
2017-12-23T12:09:54.122Z,92.30
2017-12-23T12:10:56.665Z,92.20
2017-12-23T12:11:59.349Z,92.10
2017-12-23T12:13:01.881Z,92.10
2017-12-23T12:14:04.445Z,92.10
2017-12-23T12:15:06.991Z,92.10
2017-12-23T12:16:10.348Z,92.00
2017-12-23T12:17:12.915Z,92.00
2017-12-23T12:18:15.433Z,92.10
2017-12-23T12:19:17.960Z,91.90
2017-12-23T12:20:20.492Z,92.00
2017-12-23T12:21:23.027Z,91.90
2017-12-23T12:22:25.598Z,91.80
2017-12-23T12:23:28.129Z,91.80
2017-12-23T12:24:31.427Z,91.90
2017-12-23T12:25:33.958Z,91.90
2017-12-23T12:26:36.490Z,91.90
2017-12-23T12:27:39.062Z,91.90
2017-12-23T12:28:41.577Z,91.80
2017-12-23T12:29:44.880Z,91.90
2017-12-23T12:30:47.416Z,91.90
2017-12-23T12:31:49.932Z,91.80
2017-12-23T12:32:52.506Z,91.60
2017-12-23T12:33:55.040Z,91.70
2017-12-23T12:34:58.360Z,91.70
2017-12-23T12:36:00.873Z,91.70
2017-12-23T12:37:03.399Z,91.60
2017-12-23T12:38:05.957Z,91.40
2017-12-23T12:39:09.275Z,91.20
2017-12-23T12:40:11.811Z,91.20
2017-12-23T12:41:14.760Z,91.20
2017-12-23T12:42:17.323Z,91.10
2017-12-23T12:43:19.901Z,91.10
2017-12-23T12:44:22.422Z,91.10
2017-12-23T12:45:24.953Z,91.10
2017-12-23T12:46:28.282Z,91.20
2017-12-23T12:47:31.622Z,91.40
2017-12-23T12:48:34.177Z,91.10
2017-12-23T12:49:36.738Z,91.10
2017-12-23T12:50:39.309Z,91.00
2017-12-23T12:51:41.835Z,90.90
2017-12-23T12:52:45.139Z,90.90
2017-12-23T12:53:47.673Z,90.90
2017-12-23T12:54:50.197Z,90.90
2017-12-23T12:55:52.778Z,91.00
2017-12-23T12:56:55.314Z,91.00
2017-12-23T12:57:57.844Z,91.00
2017-12-23T12:59:00.362Z,90.90
2017-12-23T13:00:02.915Z,90.90
2017-12-23T13:01:05.475Z,91.00
2017-12-23T13:02:08.000Z,91.00
2017-12-23T13:03:10.527Z,91.00
2017-12-23T13:04:14.083Z,90.90
2017-12-23T13:05:17.370Z,90.80
2017-12-23T13:06:19.930Z,90.80
2017-12-23T13:07:23.226Z,91.00
2017-12-23T13:08:25.765Z,91.00
2017-12-23T13:09:28.304Z,90.90
2017-12-23T13:10:30.857Z,90.80
2017-12-23T13:11:33.496Z,90.80
2017-12-23T13:12:36.018Z,90.70
2017-12-23T13:13:38.537Z,90.80
2017-12-23T13:14:41.063Z,90.70
2017-12-23T13:15:43.583Z,90.70
2017-12-23T13:16:46.129Z,90.90
2017-12-23T13:17:48.780Z,90.60
2017-12-23T13:18:51.337Z,90.70
2017-12-23T13:19:54.795Z,90.90
2017-12-23T13:20:58.114Z,90.90
2017-12-23T13:22:01.392Z,90.90
2017-12-23T13:23:04.734Z,90.80
2017-12-23T13:24:07.270Z,90.80
2017-12-23T13:25:09.949Z,90.90
2017-12-23T13:26:12.489Z,90.90
2017-12-23T13:27:15.769Z,90.90
2017-12-23T13:28:19.154Z,90.90
2017-12-23T13:29:22.436Z,90.90